Impacts METAR Board
IDs:

KLHB - Hearne Muni, TX, US

Updated at: 0100 UTC 01 Nov 2020
Potential Impact None Slight Moderate High
Time 31/13Z 31/14Z 31/15Z 31/16Z 31/17Z 31/18Z 31/19Z 31/20Z 31/21Z 31/22Z 31/23Z 01/00Z 01/01Z
Temp38 46 53 58 64 68 71 73 75 75 73 67 61
Dewpt37 43 46 48 48 44 43 43 43 43 45 46 48
Altim30.24 30.25 30.27 30.27 30.26 30.23 30.19 30.15 30.13 30.11 30.11 30.12 30.13
VIS10 10 10 10 10 10 10 10 10 10 10 10 10
CIG-- -- -- -- -- -- -- -- -- -- -- -- --
CoverCLRCLRCLRCLRCLRCLRCLRCLRCLRCLRCLRCLRCLR
FltCatVFRVFRVFRVFRVFRVFRVFRVFRVFRVFRVFRVFRVFR
WX--------------------------
WDir001601601902001401501701201400130
WSpd0 0 4 3 5 4 3 6 8 3 3 0 4
WGst-- -- -- -- -- -- -- -- -- -- -- -- --
Raw hourly METARs
KLHB 311255Z AUTO 00000KT 10SM CLR 03/03 A3024 RMK AO2 T00340025
KLHB 311355Z AUTO 00000KT 10SM CLR 08/06 A3025 RMK AO2 T00760061
KLHB 311455Z AUTO 16004KT 10SM CLR 11/08 A3027 RMK AO2 T01140080
KLHB 311555Z AUTO 16003KT 10SM CLR 15/09 A3027 RMK AO2 T01460088
KLHB 311655Z AUTO 19005KT 10SM CLR 18/09 A3026 RMK AO2 T01780088
KLHB 311755Z AUTO 20004KT 10SM CLR 20/07 A3023 RMK AO2 T02010069 10202 20034
KLHB 311855Z AUTO 14003KT 10SM CLR 22/06 A3019 RMK AO2 T02180062
KLHB 311955Z AUTO 15006KT 10SM CLR 23/06 A3015 RMK AO2 T02290060
KLHB 312055Z AUTO 17008KT 10SM CLR 24/06 A3013 RMK AO2 T02370060
KLHB 312155Z AUTO 12003KT 10SM CLR 24/06 A3011 RMK AO2 T02370063
KLHB 312255Z AUTO 14003KT 10SM CLR 23/07 A3011 RMK AO2 T02290072
KLHB 312355Z AUTO 00000KT 10SM CLR 20/08 A3012 RMK AO2 T01970076 10237 20197
KLHB 010055Z AUTO 13004KT 10SM CLR 16/09 A3013 RMK AO2 T01630087